createdAt,value
2023-01-22T00:00:36.916Z,7.60
2023-01-22T00:01:37.799Z,5.40
2023-01-22T00:02:38.733Z,6.60
2023-01-22T00:03:39.657Z,8.90
2023-01-22T00:04:40.535Z,7.30
2023-01-22T00:05:41.415Z,6.50
2023-01-22T00:06:42.299Z,6.30
2023-01-22T00:07:43.187Z,6.80
2023-01-22T00:08:44.078Z,6.00
2023-01-22T00:09:44.982Z,7.30
2023-01-22T00:10:45.856Z,6.50
2023-01-22T00:11:46.738Z,6.60
2023-01-22T00:12:47.622Z,6.40
2023-01-22T00:13:48.505Z,5.60
2023-01-22T00:14:49.406Z,6.70
2023-01-22T00:15:50.325Z,7.00
2023-01-22T00:16:51.168Z,6.00
2023-01-22T00:17:52.054Z,6.70
2023-01-22T00:18:52.958Z,8.60
2023-01-22T00:19:53.838Z,8.30
2023-01-22T00:20:54.722Z,10.70
2023-01-22T00:21:55.586Z,9.70
2023-01-22T00:22:56.459Z,10.80
2023-01-22T00:23:57.346Z,10.30
2023-01-22T00:24:58.237Z,11.40
2023-01-22T00:25:59.112Z,11.20
2023-01-22T00:27:00.003Z,14.20
2023-01-22T00:28:00.881Z,12.60
2023-01-22T00:29:01.764Z,9.00
2023-01-22T00:30:02.653Z,12.50
2023-01-22T00:31:03.761Z,10.10
2023-01-22T00:32:04.299Z,10.20
2023-01-22T00:33:04.700Z,10.80
2023-01-22T00:34:05.603Z,11.00
2023-01-22T00:35:06.468Z,9.90
2023-01-22T00:36:07.349Z,9.10
2023-01-22T00:37:08.229Z,8.80
2023-01-22T00:38:09.117Z,9.30
2023-01-22T00:39:10.006Z,9.20
2023-01-22T00:40:10.887Z,8.80
2023-01-22T00:41:11.773Z,10.10
2023-01-22T00:42:12.644Z,9.30
2023-01-22T00:43:13.526Z,8.60
2023-01-22T00:44:14.422Z,9.30
2023-01-22T00:45:15.310Z,10.90
2023-01-22T00:46:16.250Z,8.60
2023-01-22T00:47:17.084Z,10.00
2023-01-22T00:48:17.965Z,10.60
2023-01-22T00:49:18.870Z,9.90
2023-01-22T00:50:20.012Z,9.60
2023-01-22T00:51:20.532Z,12.10
2023-01-22T00:52:21.410Z,11.20
2023-01-22T00:53:22.295Z,8.70
2023-01-22T00:54:23.176Z,8.80
2023-01-22T00:55:24.070Z,11.40
2023-01-22T00:56:24.944Z,8.30
2023-01-22T00:57:25.847Z,9.00
2023-01-22T00:58:26.739Z,7.40
2023-01-22T00:59:27.597Z,7.10
2023-01-22T01:00:28.536Z,8.20
2023-01-22T01:01:29.359Z,7.80
2023-01-22T01:02:30.243Z,7.60
2023-01-22T01:03:31.137Z,8.30
2023-01-22T01:04:32.013Z,9.70
2023-01-22T01:05:32.911Z,6.90
2023-01-22T01:06:33.793Z,8.70
2023-01-22T01:07:34.680Z,7.10
2023-01-22T01:08:35.562Z,8.40
2023-01-22T01:09:36.467Z,8.00
2023-01-22T01:10:37.359Z,9.10
2023-01-22T01:11:38.261Z,8.00
2023-01-22T01:12:39.241Z,9.30
2023-01-22T01:13:40.059Z,10.90
2023-01-22T01:14:40.948Z,10.50
2023-01-22T01:15:42.021Z,9.00
2023-01-22T01:16:42.419Z,9.80
2023-01-22T01:17:43.304Z,10.10
2023-01-22T01:18:44.186Z,9.50
2023-01-22T01:19:45.075Z,8.70
2023-01-22T01:20:45.962Z,8.50
2023-01-22T01:21:46.858Z,11.50
2023-01-22T01:22:47.742Z,9.70
2023-01-22T01:23:48.624Z,9.50
2023-01-22T01:24:49.499Z,9.90
2023-01-22T01:25:50.397Z,8.20
2023-01-22T01:26:51.265Z,9.30
2023-01-22T01:27:52.265Z,9.70
2023-01-22T01:28:53.078Z,7.70
2023-01-22T01:29:53.954Z,8.10
2023-01-22T01:30:54.897Z,9.10
2023-01-22T01:31:55.844Z,8.90
2023-01-22T01:32:56.676Z,8.10
2023-01-22T01:33:57.572Z,8.10
2023-01-22T01:34:58.445Z,8.50
2023-01-22T01:35:59.337Z,6.60
2023-01-22T01:37:00.224Z,8.30
2023-01-22T01:38:01.107Z,7.50
2023-01-22T01:39:01.978Z,6.70
2023-01-22T01:40:02.875Z,7.20
2023-01-22T01:41:03.755Z,7.70
2023-01-22T01:42:04.640Z,8.10
2023-01-22T01:43:05.660Z,7.80
2023-01-22T01:44:06.477Z,7.30
2023-01-22T01:45:07.362Z,7.30
2023-01-22T01:46:08.268Z,6.90
2023-01-22T01:47:09.149Z,8.50
2023-01-22T01:48:10.038Z,8.70
2023-01-22T01:49:10.901Z,7.50
2023-01-22T01:50:11.800Z,7.20
2023-01-22T01:51:12.711Z,9.00
2023-01-22T01:52:13.577Z,6.80
2023-01-22T01:53:14.456Z,6.80
2023-01-22T01:54:15.344Z,7.30
2023-01-22T01:55:16.236Z,6.10
2023-01-22T01:56:17.125Z,6.00
2023-01-22T01:57:17.999Z,6.90
2023-01-22T01:58:19.001Z,7.20
2023-01-22T01:59:19.814Z,7.20
2023-01-22T02:00:20.699Z,8.50
2023-01-22T02:01:21.593Z,7.60
2023-01-22T02:02:22.522Z,7.30
2023-01-22T02:03:23.360Z,6.80
2023-01-22T02:04:24.254Z,5.30
2023-01-22T02:05:25.136Z,7.10
2023-01-22T02:06:26.036Z,6.20
2023-01-22T02:07:26.919Z,6.50
2023-01-22T02:08:27.788Z,6.10
2023-01-22T02:09:28.671Z,6.30
2023-01-22T02:10:29.564Z,6.30
2023-01-22T02:11:30.460Z,7.70
2023-01-22T02:12:31.326Z,6.00
2023-01-22T02:13:32.335Z,7.30
2023-01-22T02:14:33.163Z,8.00
2023-01-22T02:15:34.058Z,7.90
2023-01-22T02:16:34.982Z,7.90
2023-01-22T02:17:35.823Z,7.30
2023-01-22T02:18:36.696Z,7.30
2023-01-22T02:19:37.579Z,8.00
2023-01-22T02:20:38.451Z,9.40
2023-01-22T02:21:39.348Z,7.40
2023-01-22T02:22:40.229Z,6.30
2023-01-22T02:23:41.102Z,8.60
2023-01-22T02:24:41.983Z,7.30
2023-01-22T02:25:42.859Z,7.30
2023-01-22T02:26:43.755Z,9.40
2023-01-22T02:27:44.636Z,7.10
2023-01-22T02:28:45.632Z,7.90
2023-01-22T02:29:46.450Z,7.30
2023-01-22T02:30:47.369Z,6.60
2023-01-22T02:31:48.258Z,7.60
2023-01-22T02:32:49.112Z,7.00
2023-01-22T02:33:49.993Z,7.00
2023-01-22T02:34:50.892Z,8.10
2023-01-22T02:35:51.752Z,6.20
2023-01-22T02:36:52.639Z,7.50
2023-01-22T02:37:53.516Z,7.00
2023-01-22T02:38:54.400Z,6.60
2023-01-22T02:39:55.302Z,6.50
2023-01-22T02:40:56.168Z,7.70
2023-01-22T02:41:57.071Z,6.80
2023-01-22T02:42:57.947Z,5.90
2023-01-22T02:43:58.973Z,6.50
2023-01-22T02:44:59.799Z,6.80
2023-01-22T02:46:00.708Z,8.20
2023-01-22T02:47:01.576Z,7.10
2023-01-22T02:48:02.456Z,9.00
2023-01-22T02:49:03.344Z,7.00
2023-01-22T02:50:04.221Z,7.10
2023-01-22T02:51:05.136Z,6.40
2023-01-22T02:52:06.066Z,7.00
2023-01-22T02:53:06.894Z,6.00
2023-01-22T02:54:07.771Z,8.30
2023-01-22T02:55:08.642Z,6.30
2023-01-22T02:56:09.526Z,6.80
2023-01-22T02:57:10.421Z,6.50
2023-01-22T02:58:11.313Z,8.60
2023-01-22T02:59:12.303Z,6.30
2023-01-22T03:00:13.140Z,8.00
2023-01-22T03:01:14.040Z,7.00
2023-01-22T03:02:14.935Z,6.90
2023-01-22T03:03:15.795Z,6.70
2023-01-22T03:04:16.688Z,6.90
2023-01-22T03:05:17.562Z,7.20
2023-01-22T03:06:18.444Z,6.70
2023-01-22T03:07:19.343Z,6.60
2023-01-22T03:08:20.233Z,8.80
2023-01-22T03:09:21.116Z,8.10
2023-01-22T03:10:22.004Z,6.90
2023-01-22T03:11:22.892Z,7.20
2023-01-22T03:12:23.788Z,7.40
2023-01-22T03:13:24.672Z,7.50
2023-01-22T03:14:25.686Z,6.40
2023-01-22T03:15:26.499Z,7.00
2023-01-22T03:16:27.461Z,6.80
2023-01-22T03:17:27.914Z,6.70
2023-01-22T03:18:28.801Z,8.20
2023-01-22T03:19:29.683Z,7.90
2023-01-22T03:20:30.567Z,6.00
2023-01-22T03:21:31.442Z,6.50
2023-01-22T03:22:32.362Z,6.80
2023-01-22T03:23:33.235Z,7.70
2023-01-22T03:24:34.125Z,7.20
2023-01-22T03:25:34.999Z,5.80
2023-01-22T03:26:35.884Z,7.40
2023-01-22T03:27:36.783Z,6.30
2023-01-22T03:28:37.659Z,7.10
2023-01-22T03:29:44.528Z,6.80
2023-01-22T03:30:46.270Z,6.10
2023-01-22T03:31:41.344Z,7.30
2023-01-22T03:32:40.743Z,6.30
2023-01-22T03:33:41.627Z,5.50
2023-01-22T03:34:42.517Z,6.20
2023-01-22T03:35:43.396Z,7.20
2023-01-22T03:36:44.284Z,6.70
2023-01-22T03:37:45.177Z,7.70
2023-01-22T03:38:46.071Z,7.00
2023-01-22T03:39:46.951Z,6.00
2023-01-22T03:40:47.831Z,6.20
2023-01-22T03:41:48.710Z,6.30
2023-01-22T03:42:49.619Z,6.70
2023-01-22T03:43:50.491Z,6.50
2023-01-22T03:44:51.372Z,8.20
2023-01-22T03:45:52.261Z,6.40
2023-01-22T03:46:53.249Z,6.60
2023-01-22T03:47:54.078Z,9.00
2023-01-22T03:48:54.960Z,6.50
2023-01-22T03:49:55.842Z,6.50
2023-01-22T03:50:56.775Z,6.90
2023-01-22T03:51:57.629Z,7.40
2023-01-22T03:52:58.539Z,7.90
2023-01-22T03:53:59.407Z,6.10
2023-01-22T03:55:00.301Z,8.20
2023-01-22T03:56:01.175Z,6.40
2023-01-22T03:57:02.069Z,6.90
2023-01-22T03:58:02.952Z,6.20
2023-01-22T03:59:03.847Z,8.00
2023-01-22T04:00:04.721Z,5.90
2023-01-22T04:01:05.668Z,6.20
2023-01-22T04:02:06.704Z,6.00
2023-01-22T04:03:07.057Z,6.50
2023-01-22T04:04:07.935Z,6.80
2023-01-22T04:05:08.826Z,6.10
2023-01-22T04:06:09.702Z,6.60
2023-01-22T04:07:10.583Z,6.70
2023-01-22T04:08:11.476Z,6.50
2023-01-22T04:09:12.358Z,7.60
2023-01-22T04:10:13.247Z,6.00
2023-01-22T04:11:14.146Z,5.80
2023-01-22T04:12:15.014Z,6.00
2023-01-22T04:13:15.918Z,6.80
2023-01-22T04:14:16.805Z,7.90
2023-01-22T04:15:17.673Z,7.20
2023-01-22T04:16:18.599Z,6.80
2023-01-22T04:17:19.556Z,6.00
2023-01-22T04:18:20.388Z,7.60
2023-01-22T04:19:21.270Z,6.40
2023-01-22T04:20:22.148Z,8.00
2023-01-22T04:21:23.029Z,6.40
2023-01-22T04:22:23.901Z,6.40
2023-01-22T04:23:24.821Z,5.90
2023-01-22T04:24:25.681Z,6.40
2023-01-22T04:25:26.562Z,6.20
2023-01-22T04:26:27.446Z,7.50
2023-01-22T04:27:28.329Z,7.00
2023-01-22T04:28:29.224Z,7.10
2023-01-22T04:29:30.120Z,7.30
2023-01-22T04:30:31.073Z,8.80
2023-01-22T04:31:32.148Z,9.30
2023-01-22T04:32:32.653Z,9.20
2023-01-22T04:33:33.473Z,9.50
2023-01-22T04:34:34.355Z,8.60
2023-01-22T04:35:35.250Z,8.50
2023-01-22T04:36:36.125Z,7.80
2023-01-22T04:37:37.007Z,8.00
2023-01-22T04:38:37.913Z,6.60
2023-01-22T04:39:38.783Z,6.90
2023-01-22T04:40:39.671Z,6.70
2023-01-22T04:41:40.569Z,6.80
2023-01-22T04:42:41.437Z,7.60
2023-01-22T04:43:42.357Z,6.80
2023-01-22T04:44:43.200Z,7.20
2023-01-22T04:45:44.136Z,8.60
2023-01-22T04:46:44.967Z,8.40
2023-01-22T04:47:45.963Z,8.30
2023-01-22T04:48:46.793Z,6.90
2023-01-22T04:49:47.687Z,8.60
2023-01-22T04:50:48.613Z,8.30
2023-01-22T04:51:49.469Z,8.30
2023-01-22T04:52:50.338Z,8.40
2023-01-22T04:53:51.257Z,8.00
2023-01-22T04:54:52.126Z,7.30
2023-01-22T04:55:53.013Z,8.60
2023-01-22T04:56:53.902Z,7.50
2023-01-22T04:57:54.780Z,8.20
2023-01-22T04:58:55.675Z,7.50
2023-01-22T04:59:56.578Z,6.20
2023-01-22T05:00:57.541Z,7.60
2023-01-22T05:01:58.377Z,7.50
2023-01-22T05:02:59.370Z,8.10
2023-01-22T05:04:00.196Z,7.90
2023-01-22T05:05:01.076Z,8.00
2023-01-22T05:06:01.968Z,7.30
2023-01-22T05:07:02.845Z,9.20
2023-01-22T05:08:03.731Z,9.70
2023-01-22T05:09:04.644Z,7.80
2023-01-22T05:10:05.493Z,7.00
2023-01-22T05:11:06.381Z,7.60
2023-01-22T05:12:07.275Z,7.40
2023-01-22T05:13:08.152Z,8.70
2023-01-22T05:14:10.528Z,8.00
2023-01-22T05:15:23.265Z,8.80
2023-01-22T05:16:11.824Z,7.80
2023-01-22T05:17:11.670Z,6.90
2023-01-22T05:18:12.672Z,6.90
2023-01-22T05:19:13.494Z,6.40
2023-01-22T05:20:14.382Z,6.00
2023-01-22T05:21:15.261Z,6.50
2023-01-22T05:22:16.144Z,7.40
2023-01-22T05:23:17.030Z,6.30
2023-01-22T05:24:17.933Z,6.40
2023-01-22T05:25:18.821Z,7.40
2023-01-22T05:26:19.691Z,5.90
2023-01-22T05:27:20.568Z,5.50
2023-01-22T05:28:21.453Z,7.30
2023-01-22T05:29:22.346Z,5.20
2023-01-22T05:30:23.276Z,5.60
2023-01-22T05:31:24.270Z,6.10
2023-01-22T05:32:24.677Z,5.10
2023-01-22T05:33:25.687Z,5.40
2023-01-22T05:34:26.507Z,5.10
2023-01-22T05:35:27.379Z,6.10
2023-01-22T05:36:28.280Z,6.90
2023-01-22T05:37:29.149Z,6.30
2023-01-22T05:38:30.032Z,5.10
2023-01-22T05:39:30.927Z,6.40
2023-01-22T05:40:31.805Z,5.60
2023-01-22T05:41:32.686Z,7.00
2023-01-22T05:42:33.583Z,5.70
2023-01-22T05:43:34.456Z,6.00
2023-01-22T05:44:35.349Z,11.00
2023-01-22T05:45:36.228Z,16.60
2023-01-22T05:46:37.111Z,23.50
2023-01-22T05:47:37.983Z,14.80
2023-01-22T05:48:38.984Z,10.70
2023-01-22T05:49:39.808Z,10.20
2023-01-22T05:50:40.695Z,8.70
2023-01-22T05:51:41.580Z,7.30
2023-01-22T05:52:42.465Z,7.20
2023-01-22T05:53:43.338Z,5.20
2023-01-22T05:54:44.243Z,5.30
2023-01-22T05:55:45.128Z,5.60
2023-01-22T05:56:46.004Z,6.20
2023-01-22T05:57:46.898Z,7.70
2023-01-22T05:58:47.771Z,7.60
2023-01-22T05:59:48.681Z,8.80
2023-01-22T06:00:49.560Z,7.00
2023-01-22T06:01:50.435Z,5.70
2023-01-22T06:02:51.323Z,6.00
2023-01-22T06:03:52.480Z,8.90
2023-01-22T06:04:52.849Z,7.60
2023-01-22T06:05:53.738Z,6.90
2023-01-22T06:06:54.645Z,5.10
2023-01-22T06:07:55.508Z,5.10
2023-01-22T06:08:56.391Z,7.20
2023-01-22T06:09:57.299Z,9.90
2023-01-22T06:10:58.171Z,6.40
2023-01-22T06:11:59.077Z,4.70
2023-01-22T06:12:59.931Z,5.90
2023-01-22T06:14:00.818Z,4.90
2023-01-22T06:15:01.712Z,6.00
2023-01-22T06:16:02.617Z,6.40
2023-01-22T06:17:03.465Z,6.10
2023-01-22T06:18:04.365Z,6.40
2023-01-22T06:19:05.355Z,7.50
2023-01-22T06:20:06.184Z,7.80
2023-01-22T06:21:07.069Z,8.10
2023-01-22T06:22:07.947Z,6.80
2023-01-22T06:23:08.839Z,5.90
2023-01-22T06:24:09.729Z,6.00
2023-01-22T06:25:10.618Z,7.50
2023-01-22T06:26:11.501Z,7.30
2023-01-22T06:27:12.387Z,8.70
2023-01-22T06:28:13.212Z,7.90
2023-01-22T06:29:14.086Z,7.30
2023-01-22T06:30:15.409Z,8.00
2023-01-22T06:31:15.876Z,7.60
2023-01-22T06:32:16.708Z,10.60
2023-01-22T06:33:17.537Z,8.80
2023-01-22T06:34:18.541Z,10.00
2023-01-22T06:35:19.365Z,9.90
2023-01-22T06:36:20.220Z,9.70
2023-01-22T06:37:21.037Z,10.10
2023-01-22T06:38:21.878Z,8.70
2023-01-22T06:39:22.708Z,9.00
2023-01-22T06:40:23.604Z,8.30
2023-01-22T06:41:24.443Z,8.60
2023-01-22T06:42:25.289Z,10.20
2023-01-22T06:43:26.107Z,11.50
2023-01-22T06:44:26.940Z,12.10
2023-01-22T06:45:27.783Z,10.80
2023-01-22T06:46:28.637Z,12.10
2023-01-22T06:47:29.459Z,9.40
2023-01-22T06:48:30.284Z,10.70
2023-01-22T06:49:31.239Z,8.80
2023-01-22T06:50:32.009Z,10.80
2023-01-22T06:51:32.868Z,12.40
2023-01-22T06:52:33.671Z,11.50
2023-01-22T06:53:34.491Z,14.40
2023-01-22T06:54:35.335Z,18.50
2023-01-22T06:55:36.185Z,20.20
2023-01-22T06:56:36.998Z,16.60
2023-01-22T06:57:37.825Z,17.30
2023-01-22T06:58:38.670Z,15.10
2023-01-22T06:59:39.482Z,14.00
2023-01-22T07:00:40.330Z,16.40
2023-01-22T07:01:41.293Z,16.60
2023-01-22T07:02:42.099Z,17.10
2023-01-22T07:03:42.956Z,15.40
2023-01-22T07:04:43.867Z,14.60
2023-01-22T07:05:44.640Z,14.30
2023-01-22T07:06:45.486Z,13.70
2023-01-22T07:07:46.305Z,14.60
2023-01-22T07:08:47.130Z,12.90
2023-01-22T07:09:47.958Z,16.20
2023-01-22T07:10:48.804Z,15.80
2023-01-22T07:11:49.621Z,14.70
2023-01-22T07:12:50.445Z,14.50
2023-01-22T07:13:51.282Z,14.50
2023-01-22T07:14:52.103Z,14.50
2023-01-22T07:15:53.072Z,12.00
2023-01-22T07:16:53.872Z,13.90
2023-01-22T07:17:54.714Z,12.60
2023-01-22T07:18:55.538Z,11.20
2023-01-22T07:19:56.494Z,10.80
2023-01-22T07:20:57.278Z,10.50
2023-01-22T07:21:58.107Z,9.50
2023-01-22T07:22:59.890Z,12.10
2023-01-22T07:23:59.861Z,11.80
2023-01-22T07:25:00.715Z,10.60
2023-01-22T07:26:01.459Z,10.00
2023-01-22T07:27:02.293Z,7.90
2023-01-22T07:28:03.145Z,7.20
2023-01-22T07:29:03.974Z,7.00
2023-01-22T07:30:04.891Z,5.60
2023-01-22T07:31:05.805Z,6.70
2023-01-22T07:32:06.616Z,8.20
2023-01-22T07:33:07.461Z,7.70
2023-01-22T07:34:08.302Z,6.30
2023-01-22T07:35:09.239Z,7.80
2023-01-22T07:36:10.025Z,7.00
2023-01-22T07:37:10.857Z,5.60
2023-01-22T07:38:11.688Z,6.10
2023-01-22T07:39:12.514Z,6.70
2023-01-22T07:40:13.334Z,6.20
2023-01-22T07:41:25.595Z,5.60
2023-01-22T07:42:15.919Z,7.20
2023-01-22T07:43:15.728Z,9.80
2023-01-22T07:44:16.565Z,12.80
2023-01-22T07:45:17.390Z,13.30
2023-01-22T07:46:18.293Z,18.60
2023-01-22T07:47:19.085Z,15.50
2023-01-22T07:48:19.931Z,16.80
2023-01-22T07:49:20.757Z,13.50
2023-01-22T07:50:21.689Z,12.90
2023-01-22T07:51:22.491Z,11.50
2023-01-22T07:52:23.293Z,11.90
2023-01-22T07:53:24.107Z,9.90
2023-01-22T07:54:24.962Z,9.80
2023-01-22T07:55:25.783Z,11.10
2023-01-22T07:56:26.617Z,12.00
2023-01-22T07:57:27.447Z,10.60
2023-01-22T07:58:28.266Z,11.90
2023-01-22T07:59:29.100Z,11.60
2023-01-22T08:00:29.982Z,14.00
2023-01-22T08:01:30.765Z,13.80
2023-01-22T08:02:31.599Z,13.30
2023-01-22T08:03:32.427Z,11.40
2023-01-22T08:04:33.246Z,9.20
2023-01-22T08:05:34.205Z,9.10
2023-01-22T08:06:34.991Z,9.20
2023-01-22T08:07:35.811Z,10.80
2023-01-22T08:08:36.642Z,11.00
2023-01-22T08:09:37.481Z,8.00
2023-01-22T08:10:38.317Z,8.00
2023-01-22T08:11:39.146Z,8.40
2023-01-22T08:12:39.963Z,7.70
2023-01-22T08:13:40.799Z,8.80
2023-01-22T08:14:41.626Z,7.00
2023-01-22T08:15:42.476Z,7.20
2023-01-22T08:16:43.414Z,7.60
2023-01-22T08:17:44.195Z,7.50
2023-01-22T08:18:45.029Z,7.50
2023-01-22T08:19:45.861Z,9.00
2023-01-22T08:20:46.838Z,11.00
2023-01-22T08:21:47.608Z,10.90
2023-01-22T08:22:48.450Z,13.20
2023-01-22T08:23:49.515Z,14.60
2023-01-22T08:24:49.790Z,14.40
2023-01-22T08:25:50.616Z,13.10
2023-01-22T08:26:51.456Z,12.60
2023-01-22T08:27:52.287Z,11.30
2023-01-22T08:28:53.118Z,14.00
2023-01-22T08:29:53.948Z,14.00
2023-01-22T08:30:54.796Z,10.90
2023-01-22T08:31:55.746Z,14.60
2023-01-22T08:32:56.590Z,11.60
2023-01-22T08:33:57.419Z,11.90
2023-01-22T08:34:58.287Z,12.50
2023-01-22T08:35:59.195Z,13.00
2023-01-22T08:36:59.968Z,13.20
2023-01-22T08:38:00.791Z,13.40
2023-01-22T08:39:01.643Z,11.50
2023-01-22T08:40:02.455Z,9.70
2023-01-22T08:41:03.309Z,12.80
2023-01-22T08:42:04.146Z,11.30
2023-01-22T08:43:04.971Z,11.50
2023-01-22T08:44:05.794Z,12.30
2023-01-22T08:45:06.621Z,13.20
2023-01-22T08:46:07.587Z,14.80
2023-01-22T08:47:08.393Z,14.40
2023-01-22T08:48:09.231Z,16.40
2023-01-22T08:49:10.051Z,19.20
2023-01-22T08:50:10.881Z,14.30
2023-01-22T08:51:11.894Z,12.60
2023-01-22T08:52:12.215Z,11.40
2023-01-22T08:53:13.043Z,14.00
2023-01-22T08:54:13.872Z,14.80
2023-01-22T08:55:14.719Z,13.70
2023-01-22T08:56:15.530Z,13.10
2023-01-22T08:57:16.374Z,14.70
2023-01-22T08:58:17.204Z,12.20
2023-01-22T08:59:18.039Z,11.20
2023-01-22T09:00:19.188Z,9.80
2023-01-22T09:01:19.697Z,8.30
2023-01-22T09:02:20.547Z,11.80
2023-01-22T09:03:21.361Z,10.60
2023-01-22T09:04:22.193Z,9.50
2023-01-22T09:05:23.013Z,13.10
2023-01-22T09:06:23.956Z,10.00
2023-01-22T09:07:24.762Z,11.70
2023-01-22T09:08:25.597Z,9.70
2023-01-22T09:09:26.424Z,9.00
2023-01-22T09:10:27.252Z,10.50
2023-01-22T09:11:28.100Z,9.80
2023-01-22T09:12:28.922Z,15.50
2023-01-22T09:13:29.751Z,16.40
2023-01-22T09:14:30.574Z,14.50
2023-01-22T09:15:31.402Z,12.10
2023-01-22T09:16:32.250Z,15.80
2023-01-22T09:17:33.072Z,14.00
2023-01-22T09:18:33.927Z,13.40
2023-01-22T09:19:34.736Z,13.70
2023-01-22T09:20:35.565Z,15.80
2023-01-22T09:21:42.397Z,13.70
2023-01-22T09:22:44.008Z,14.20
2023-01-22T09:23:38.964Z,12.20
2023-01-22T09:24:38.742Z,15.50
2023-01-22T09:25:39.562Z,12.90
2023-01-22T09:26:40.409Z,12.40
2023-01-22T09:27:41.235Z,14.90
2023-01-22T09:28:42.077Z,15.30
2023-01-22T09:29:43.034Z,12.40
2023-01-22T09:30:43.879Z,14.20
2023-01-22T09:31:44.730Z,12.10
2023-01-22T09:32:45.549Z,11.70
2023-01-22T09:33:46.362Z,8.80
2023-01-22T09:34:47.189Z,10.10
2023-01-22T09:35:48.021Z,10.10
2023-01-22T09:36:48.844Z,8.50
2023-01-22T09:37:49.673Z,8.80
2023-01-22T09:38:50.620Z,7.50
2023-01-22T09:39:51.460Z,8.50
2023-01-22T09:40:52.292Z,10.80
2023-01-22T09:41:53.114Z,11.00
2023-01-22T09:42:53.953Z,10.40
2023-01-22T09:43:54.777Z,11.50
2023-01-22T09:44:55.627Z,9.50
2023-01-22T09:45:56.499Z,9.80
2023-01-22T09:46:57.277Z,12.60
2023-01-22T09:47:58.121Z,14.80
2023-01-22T09:48:58.953Z,11.70
2023-01-22T09:49:59.781Z,11.90
2023-01-22T09:51:00.661Z,10.50
2023-01-22T09:52:02.634Z,9.40
2023-01-22T09:53:02.057Z,9.00
2023-01-22T09:54:03.003Z,8.60
2023-01-22T09:55:03.758Z,10.00
2023-01-22T09:56:04.580Z,8.70
2023-01-22T09:57:05.427Z,7.60
2023-01-22T09:58:06.272Z,9.70
2023-01-22T09:59:07.099Z,8.00
2023-01-22T10:00:07.919Z,11.40
2023-01-22T10:01:08.829Z,12.20
2023-01-22T10:02:09.669Z,8.50
2023-01-22T10:03:10.455Z,7.70
2023-01-22T10:04:11.281Z,7.60
2023-01-22T10:05:12.105Z,9.50
2023-01-22T10:06:12.925Z,10.70
2023-01-22T10:07:13.759Z,9.90
2023-01-22T10:08:14.605Z,7.70
2023-01-22T10:09:15.526Z,7.40
2023-01-22T10:10:16.756Z,9.30
2023-01-22T10:11:17.292Z,8.40
2023-01-22T10:12:18.082Z,12.70
2023-01-22T10:13:18.935Z,13.50
2023-01-22T10:14:19.749Z,14.50
2023-01-22T10:15:20.586Z,26.70
2023-01-22T10:16:21.455Z,16.80
2023-01-22T10:17:22.242Z,11.20
2023-01-22T10:18:23.077Z,10.50
2023-01-22T10:19:23.910Z,9.70
2023-01-22T10:20:24.748Z,9.40
2023-01-22T10:21:25.568Z,11.30
2023-01-22T10:22:26.392Z,9.30
2023-01-22T10:23:27.235Z,10.30
2023-01-22T10:24:28.171Z,10.30
2023-01-22T10:25:28.933Z,11.00
2023-01-22T10:26:29.763Z,11.30
2023-01-22T10:27:30.584Z,12.80
2023-01-22T10:28:31.418Z,17.40
2023-01-22T10:29:32.241Z,17.90
2023-01-22T10:30:33.202Z,14.20
2023-01-22T10:31:34.161Z,18.30
2023-01-22T10:32:35.004Z,33.70
2023-01-22T10:33:35.839Z,41.60
2023-01-22T10:34:36.712Z,18.90
2023-01-22T10:35:37.490Z,69.60
2023-01-22T10:36:38.319Z,71.60
2023-01-22T10:37:39.150Z,35.50
2023-01-22T10:38:40.007Z,19.90
2023-01-22T10:39:40.959Z,26.10
2023-01-22T10:40:41.736Z,32.30
2023-01-22T10:41:42.559Z,23.90
2023-01-22T10:42:43.386Z,25.90
2023-01-22T10:43:44.219Z,18.10
2023-01-22T10:44:45.050Z,25.20
2023-01-22T10:45:45.926Z,18.60
2023-01-22T10:46:46.721Z,8.50
2023-01-22T10:47:47.540Z,8.20
2023-01-22T10:48:48.388Z,10.40
2023-01-22T10:49:49.201Z,7.00
2023-01-22T10:50:50.063Z,5.10
2023-01-22T10:51:50.851Z,8.90
2023-01-22T10:52:51.700Z,5.70
2023-01-22T10:53:52.551Z,9.90
2023-01-22T10:54:53.477Z,8.80
2023-01-22T10:55:54.258Z,8.60
2023-01-22T10:56:55.107Z,6.00
2023-01-22T10:57:56.017Z,7.40
2023-01-22T10:58:56.964Z,8.60
2023-01-22T10:59:57.895Z,7.70
2023-01-22T11:00:58.811Z,7.60
2023-01-22T11:01:59.592Z,11.90
2023-01-22T11:03:00.418Z,8.00
2023-01-22T11:04:01.252Z,5.80
2023-01-22T11:05:02.076Z,5.20
2023-01-22T11:06:02.903Z,5.10
2023-01-22T11:07:03.736Z,9.90
2023-01-22T11:08:04.555Z,12.00
2023-01-22T11:09:05.393Z,7.50
2023-01-22T11:10:06.329Z,7.50
2023-01-22T11:11:07.095Z,7.10
2023-01-22T11:12:07.924Z,5.60
2023-01-22T11:13:08.750Z,5.80
2023-01-22T11:14:09.602Z,9.80
2023-01-22T11:15:10.421Z,8.60
2023-01-22T11:16:11.304Z,6.40
2023-01-22T11:17:12.072Z,6.80
2023-01-22T11:18:12.893Z,5.80
2023-01-22T11:19:13.736Z,6.10
2023-01-22T11:20:14.567Z,6.10
2023-01-22T11:21:15.391Z,5.50
2023-01-22T11:22:16.205Z,6.40
2023-01-22T11:23:17.035Z,5.50
2023-01-22T11:24:17.868Z,9.00
2023-01-22T11:25:18.806Z,6.80
2023-01-22T11:26:19.585Z,9.10
2023-01-22T11:27:20.411Z,8.60
2023-01-22T11:28:21.221Z,6.50
2023-01-22T11:29:22.084Z,5.60
2023-01-22T11:30:23.299Z,7.20
2023-01-22T11:31:24.022Z,7.90
2023-01-22T11:32:24.413Z,7.60
2023-01-22T11:33:25.239Z,5.70
2023-01-22T11:34:26.070Z,6.10
2023-01-22T11:35:26.897Z,5.90
2023-01-22T11:36:27.751Z,5.40
2023-01-22T11:37:28.551Z,6.30
2023-01-22T11:38:29.371Z,6.00
2023-01-22T11:39:30.224Z,5.80
2023-01-22T11:40:31.156Z,6.20
2023-01-22T11:41:31.927Z,5.70
2023-01-22T11:42:32.739Z,5.80
2023-01-22T11:43:33.572Z,6.80
2023-01-22T11:44:34.401Z,6.10
2023-01-22T11:45:35.234Z,5.90
2023-01-22T11:46:36.111Z,6.60
2023-01-22T11:47:36.897Z,6.20
2023-01-22T11:48:40.013Z,7.10
2023-01-22T11:49:38.572Z,5.80
2023-01-22T11:50:39.397Z,9.10
2023-01-22T11:51:40.241Z,8.30
2023-01-22T11:52:41.061Z,6.70
2023-01-22T11:53:41.894Z,5.60
2023-01-22T11:54:42.736Z,5.40
2023-01-22T11:55:43.684Z,5.90
2023-01-22T11:56:44.449Z,6.50
2023-01-22T11:57:45.275Z,6.40
2023-01-22T11:58:46.120Z,5.40
2023-01-22T11:59:46.961Z,6.50
2023-01-22T12:00:47.797Z,5.30
2023-01-22T12:01:48.651Z,6.30
2023-01-22T12:02:49.607Z,5.30
2023-01-22T12:03:50.471Z,5.30
2023-01-22T12:04:51.291Z,6.50
2023-01-22T12:05:52.139Z,5.80
2023-01-22T12:06:52.951Z,5.60
2023-01-22T12:07:53.791Z,9.80
2023-01-22T12:08:54.613Z,8.20
2023-01-22T12:09:55.473Z,6.50
2023-01-22T12:10:56.432Z,7.40
2023-01-22T12:11:57.193Z,5.80
2023-01-22T12:12:58.019Z,4.80
2023-01-22T12:13:58.844Z,4.80
2023-01-22T12:14:59.694Z,4.80
2023-01-22T12:16:00.561Z,5.30
2023-01-22T12:17:01.339Z,5.70
2023-01-22T12:18:02.168Z,7.70
2023-01-22T12:19:03.001Z,8.30
2023-01-22T12:20:03.854Z,11.80
2023-01-22T12:21:04.664Z,13.70
2023-01-22T12:22:05.499Z,23.90
2023-01-22T12:23:06.317Z,16.00
2023-01-22T12:24:07.147Z,29.30
2023-01-22T12:25:07.981Z,26.70
2023-01-22T12:26:08.926Z,40.40
2023-01-22T12:27:12.181Z,41.60
2023-01-22T12:28:10.676Z,32.50
2023-01-22T12:29:11.500Z,69.60
2023-01-22T12:30:12.342Z,32.00
2023-01-22T12:31:13.317Z,25.60
2023-01-22T12:32:14.106Z,12.20
2023-01-22T12:33:14.929Z,24.70
2023-01-22T12:34:15.764Z,15.50
2023-01-22T12:35:16.614Z,9.20
2023-01-22T12:36:17.446Z,9.60
2023-01-22T12:37:18.267Z,7.60
2023-01-22T12:38:19.096Z,6.50
2023-01-22T12:39:19.913Z,6.10
2023-01-22T12:40:20.979Z,5.50
2023-01-22T12:41:21.541Z,6.60
2023-01-22T12:42:22.300Z,4.40
2023-01-22T12:43:23.189Z,6.80
2023-01-22T12:44:24.011Z,5.60
2023-01-22T12:45:24.844Z,6.00
2023-01-22T12:46:25.754Z,6.20
2023-01-22T12:47:26.544Z,6.50
2023-01-22T12:48:27.383Z,7.70
2023-01-22T12:49:28.212Z,6.50
2023-01-22T12:50:29.047Z,6.30
2023-01-22T12:51:29.888Z,5.50
2023-01-22T12:52:30.711Z,6.30
2023-01-22T12:53:31.545Z,5.60
2023-01-22T12:54:32.434Z,5.50
2023-01-22T12:55:33.232Z,5.00
2023-01-22T12:56:34.183Z,5.40
2023-01-22T12:57:34.960Z,6.50
2023-01-22T12:58:35.794Z,5.20
2023-01-22T12:59:36.639Z,5.40
2023-01-22T13:00:37.489Z,6.70
2023-01-22T13:01:38.316Z,7.10
2023-01-22T13:02:39.119Z,7.30
2023-01-22T13:03:39.940Z,7.20
2023-01-22T13:04:40.786Z,6.80
2023-01-22T13:05:41.611Z,10.40
2023-01-22T13:06:42.442Z,10.20
2023-01-22T13:07:43.277Z,7.70
2023-01-22T13:08:44.142Z,7.30
2023-01-22T13:09:44.939Z,6.50
2023-01-22T13:10:45.785Z,6.10
2023-01-22T13:11:46.729Z,5.00
2023-01-22T13:12:47.523Z,6.40
2023-01-22T13:13:48.342Z,6.80
2023-01-22T13:14:49.157Z,6.00
2023-01-22T13:15:50.042Z,6.50
2023-01-22T13:16:50.834Z,5.40
2023-01-22T13:18:05.925Z,6.50
2023-01-22T13:18:53.379Z,6.50
2023-01-22T13:19:53.200Z,5.80
2023-01-22T13:20:54.036Z,7.20
2023-01-22T13:21:54.852Z,6.00
2023-01-22T13:22:55.687Z,4.60